• Join FlightAware (Why Join?)
  • Login
  • US Flag 
06:32AM EDT


 

Airport Tracker/Info


-or-


 

Live Flight TrackerFlight Track Log ✈ VH-OZH ✈ 11-Sep-2013 ✈ YBBN / BNE - YTDR

Flight Track Log - Related Links

Times and Time Zones

All times are in EDT time to prevent confusion due to time zone crossing. See the VH-OZH flight status page for this flight to view local times or setup timezone preferences in your user account.

Time Position Orientation Groundspeed Altitude Reporting Facility
EDT Latitude Longitude Course Direction KTS MPH feet Rate Location/Type
04:39PM -27.3387 153.1092 302° West 82 94 1,000  Level Aus ATC (RADAR)
04:40PM -27.3235 153.0819 302° West 83 96 1,900 660 Climbing Aus ATC (RADAR)
04:41PM -27.3102 153.0565 301° West 85 98 2,600 600 Climbing Aus ATC (RADAR)
04:42PM -27.2949 153.0300 303° West 92 106 3,200 600 Climbing Aus ATC (RADAR)
04:43PM -27.2810 153.0042 301° West 91 105 3,900 600 Climbing Aus ATC (RADAR)
04:44PM -27.2687 152.9735 294° West 98 113 4,500 600 Climbing Aus ATC (RADAR)
04:45PM -27.2558 152.9426 295° West 96 110 5,200 600 Climbing Aus ATC (RADAR)
04:47PM -27.2294 152.8890 299° West 99 114 6,400 600 Climbing Aus ATC (RADAR)
04:47PM -27.2262 152.8816 296° West 101 116 6,500 600 Climbing Aus ATC (RADAR)
04:48PM -27.2129 152.8480 294° West 109 125 7,200 600 Climbing Aus ATC (RADAR)
04:50PM -27.1952 152.8039 294° West 105 121 8,000 480 Climbing Aus ATC (RADAR)
04:51PM -27.1819 152.7721 295° West 109 125 8,500 480 Climbing Aus ATC (RADAR)
04:52PM -27.1644 152.7327 296° West 109 125 9,100 480 Climbing Aus ATC (RADAR)
04:53PM -27.1530 152.7058 295° West 110 127 9,500 480 Climbing Aus ATC (RADAR)
04:54PM -27.1378 152.6709 296° West 111 128 10,100 180 Climbing Aus ATC (RADAR)
04:55PM -27.1153 152.6235 298° West 142 163 10,000 -60 Descending Aus ATC (RADAR)
04:56PM -27.0958 152.5787 296° West 146 168 10,000  Level Aus ATC (RADAR)
04:57PM -27.0778 152.5323 293° West 146 168 10,000  Level Aus ATC (RADAR)
04:58PM -27.0627 152.4882 291° West 149 171 10,000  Level Aus ATC (RADAR)
04:59PM -27.0351 152.4511 310° West 158 182 10,000  Level Aus ATC (RADAR)
05:01PM -26.9727 152.3791 314° West 159 183 10,000  Level Aus ATC (RADAR)
05:02PM -26.9654 152.3698 311° West 158 182 10,000  Level Aus ATC (RADAR)
05:02PM -26.9430 152.3417 312° West 159 183 10,000  Level Aus ATC (RADAR)
05:03PM -26.9304 152.3263 313° West 159 183 10,000  Level Aus ATC (RADAR)
05:03PM -26.9125 152.3047 313° West 160 184 10,000  Level Aus ATC (RADAR)
05:04PM -26.8901 152.2769 312° West 158 182 10,000  Level Aus ATC (RADAR)
05:06PM -26.8474 152.2240 312° West 159 183 10,000  Level Aus ATC (RADAR)
05:06PM -26.8349 152.2084 312° West 159 183 10,000  Level Aus ATC (RADAR)
05:06PM -26.8221 152.1929 313° West 161 185 10,000  Level Aus ATC (RADAR)
05:07PM -26.8043 152.1713 313° West 159 183 10,000  Level Aus ATC (RADAR)
05:08PM -26.7846 152.1466 312° West 158 182 10,000  Level Aus ATC (RADAR)
05:08PM -26.7674 152.1251 312° West 156 180 10,000  Level Aus ATC (RADAR)
05:09PM -26.7495 152.1035 313° West 160 184 10,000  Level Aus ATC (RADAR)
05:10PM -26.7295 152.0789 312° West 158 182 10,000  Level Aus ATC (RADAR)
05:11PM -26.6764 152.0149 313° West 158 182 10,000  Level Aus ATC (RADAR)
05:12PM -26.6691 152.0054 311° West 158 182 10,000  Level Aus ATC (RADAR)
05:12PM -26.6536 151.9874 314° West 159 183 10,000  Level Aus ATC (RADAR)
05:13PM -26.6312 151.9589 311° West 163 188 10,000  Level Aus ATC (RADAR)
05:13PM -26.6110 151.9350 313° West 158 182 10,000  Level Aus ATC (RADAR)
05:14PM -26.5909 151.9108 313° West 155 178 10,000  Level Aus ATC (RADAR)
05:15PM -26.5779 151.8947 312° West 163 188 10,000  Level Aus ATC (RADAR)
05:16PM -26.5351 151.8423 312° West 165 190 10,000  Level Aus ATC (RADAR)
05:16PM -26.5223 151.8276 314° West 159 183 10,000  Level Aus ATC (RADAR)
05:17PM -26.5046 151.8053 312° West 164 189 10,000  Level Aus ATC (RADAR)
05:18PM -26.4816 151.7781 313° West 161 185 10,000  Level Aus ATC (RADAR)
05:18PM -26.4637 151.7567 313° West 160 184 10,000  Level Aus ATC (RADAR)
05:19PM -26.4487 151.7375 311° West 162 186 10,000  Level Aus ATC (RADAR)
05:19PM -26.4309 151.7168 314° West 158 182 10,000  Level Aus ATC (RADAR)
05:21PM -26.3953 151.6737 313° West 159 183 10,000  Level Aus ATC (RADAR)
05:21PM -26.3752 151.6497 313° West 158 182 10,000  Level Aus ATC (RADAR)
05:22PM -26.3648 151.6354 309° West 168 193 10,000  Level Aus ATC (RADAR)
05:22PM -26.3472 151.6161 316° Northwest 158 182 10,000  Level Aus ATC (RADAR)
05:23PM -26.3292 151.5954 314° West 158 182 10,000  Level Aus ATC (RADAR)
05:23PM -26.3117 151.5721 310° West 166 191 10,000  Level Aus ATC (RADAR)
05:24PM -26.2890 151.5435 311° West 163 188 10,000  Level Aus ATC (RADAR)
05:24PM -26.2763 151.5288 314° West 160 184 10,000  Level Aus ATC (RADAR)
05:26PM -26.2234 151.4669 314° West 157 181 10,000  Level Aus ATC (RADAR)
05:27PM -26.2105 151.4516 313° West 161 185 10,000  Level Aus ATC (RADAR)
05:27PM -26.2004 151.4393 312° West 160 184 10,000  Level Aus ATC (RADAR)
05:27PM -26.1831 151.4160 310° West 164 189 10,000  Level Aus ATC (RADAR)
05:28PM -26.1578 151.3857 313° West 160 184 10,000  Level Aus ATC (RADAR)
05:29PM -26.1400 151.3643 313° West 161 185 10,000  Level Aus ATC (RADAR)
05:29PM -26.1249 151.3460 313° West 160 184 10,000  Level Aus ATC (RADAR)
05:31PM -26.0741 151.2854 313° West 159 183 10,000  Level Aus ATC (RADAR)
05:32PM -26.0586 151.2667 313° West 160 184 10,000  Level Aus ATC (RADAR)
05:32PM -26.0459 151.2514 313° West 160 184 10,000  Level Aus ATC (RADAR)
05:33PM -26.0268 151.2336 320° Northwest 155 178 10,000  Level Aus ATC (RADAR)
05:33PM -26.0033 151.2075 315° West 159 183 10,000  Level Aus ATC (RADAR)
05:34PM -25.9863 151.1852 310° West 160 184 10,000  Level Aus ATC (RADAR)
05:34PM -25.9681 151.1650 315° West 158 182 10,000  Level Aus ATC (RADAR)
05:35PM -25.9531 151.1464 312° West 160 184 10,000  Level Aus ATC (RADAR)
05:36PM -25.9177 151.1045 313° West 158 182 10,000  Level Aus ATC (RADAR)
05:37PM -25.8996 151.0845 315° West 158 182 10,000  Level Aus ATC (RADAR)
05:37PM -25.8825 151.0629 311° West 158 182 10,000  Level Aus ATC (RADAR)
05:38PM -25.8645 151.0417 313° West 160 184 10,000  Level Aus ATC (RADAR)
05:38PM -25.8497 151.0234 312° West 158 182 10,000  Level Aus ATC (RADAR)
05:39PM -25.8319 151.0023 313° West 161 185 10,000  Level Aus ATC (RADAR)
05:40PM -25.8109 150.9794 316° Northwest 158 182 10,000  Level Aus ATC (RADAR)
05:40PM -25.7924 150.9587 315° West 161 185 10,000  Level Aus ATC (RADAR)
05:42PM -25.7492 150.9064 313° West 161 185 10,000  Level Aus ATC (RADAR)
05:42PM -25.7364 150.8905 312° West 164 189 10,000  Level Aus ATC (RADAR)
05:43PM -25.7156 150.8669 314° West 162 186 10,000  Level Aus ATC (RADAR)
05:43PM -25.6958 150.8412 310° West 164 189 10,000  Level Aus ATC (RADAR)
05:44PM -25.6779 150.8206 314° West 160 184 10,000  Level Aus ATC (RADAR)
05:45PM -25.6599 150.7995 313° West 161 185 10,000  Level Aus ATC (RADAR)
05:45PM -25.6390 150.7765 315° West 159 183 10,000 -240 Level Aus ATC (RADAR)
05:47PM -25.5908 150.7176 312° West 181 208 9,600 -360 Descending Aus ATC (RADAR)
05:47PM -25.5767 150.7007 313° West 180 207 9,400 -480 Descending Aus ATC (RADAR)
05:48PM -25.5550 150.6737 312° West 178 205 9,100 -540 Descending Aus ATC (RADAR)
05:48PM -25.5317 150.6465 313° West 182 209 8,700 -540 Descending Aus ATC (RADAR)
05:49PM -25.5127 150.6228 312° West 177 204 8,500 -480 Descending Aus ATC (RADAR)
05:50PM -25.4872 150.5938 314° West 176 203 8,100 -480 Descending Aus ATC (RADAR)
05:50PM -25.4734 150.5778 314° West 173 199 8,000 -480 Descending Aus ATC (RADAR)
05:52PM -25.4153 150.5096 313° West 175 201 7,100 -480 Descending Aus ATC (RADAR)
05:52PM -25.4018 150.4939 314° West 171 197 7,000 -420 Descending Aus ATC (RADAR)
05:53PM -25.3829 150.4715 313° West 170 196 6,700 -480 Descending Aus ATC (RADAR)
05:54PM -25.3595 150.4424 312° West 166 191 6,400 -540 Descending Aus ATC (RADAR)
05:54PM -25.3407 150.4194 312° West 172 198 6,000 -540 Descending Aus ATC (RADAR)
05:55PM -25.3217 150.3975 314° West 169 194 5,800 -420 Descending Aus ATC (RADAR)
05:56PM -25.3004 150.3730 314° West 168 193 5,500 -360 Descending Aus ATC (RADAR)
05:57PM -25.2653 150.3395 319° Northwest 168 193 5,200 -420 Descending Aus ATC (RADAR)
05:57PM -25.2449 150.3217 322° Northwest 163 188 4,900 -540 Descending Aus ATC (RADAR)
05:58PM -25.2237 150.3030 321° Northwest 164 189 4,600 -540 Descending Aus ATC (RADAR)
05:58PM -25.2025 150.2833 320° Northwest 169 194 4,300 -480 Descending Aus ATC (RADAR)
05:59PM -25.1823 150.2654 321° Northwest 162 186 4,100 -480 Descending Aus ATC (RADAR)
05:59PM -25.1612 150.2469 321° Northwest 165 190 3,800 -480 Descending Aus ATC (RADAR)
06:00PM -25.1357 150.2240 321° Northwest 159 183 3,500 -480 Descending Aus ATC (RADAR)
06:01PM -25.1217 150.2115 321° Northwest 156 180 3,300 -540 Descending Aus ATC (RADAR)
06:01PM -25.0952 150.1872 320° Northwest 148 170 2,900 -540 Descending Aus ATC (RADAR)
06:02PM -25.0775 150.1703 319° Northwest 145 167 2,600 -720 Descending Aus ATC (RADAR)
06:03PM -25.0570 150.1550 326° Northwest 153 176 2,100 -600 Descending Aus ATC (RADAR)
06:03PM -25.0293 150.1400 334° Northwest 151 174 1,800 -480 Descending Aus ATC (RADAR)
06:04PM -25.0141 150.1308 331° Northwest 149 171 1,600 -300 Descending Aus ATC (RADAR)
06:04PM -24.9941 150.1171 328° Northwest 145 167 1,500 -120 Descending Aus ATC (RADAR)
06:05PM -24.9703 150.1126 350° North 119 137 1,500 -120 Level Aus ATC (RADAR)
06:05PM -24.9607 150.1109 351° North 112 129 1,400 -300 Descending Aus ATC (RADAR)